sensor_id;sensor_type;location;lat;lon;timestamp;P1;P2;P0
80499;PMS5003;69823;54.120;-4.710;2023-07-13T00:00:28;0;0;
80499;PMS5003;69823;54.120;-4.710;2023-07-13T00:02:54;0;0;
80499;PMS5003;69823;54.120;-4.710;2023-07-13T00:05:20;0;0;
80499;PMS5003;69823;54.120;-4.710;2023-07-13T00:07:45;1;1;
80499;PMS5003;69823;54.120;-4.710;2023-07-13T00:10:11;0;0;
80499;PMS5003;69823;54.120;-4.710;2023-07-13T00:12:37;0;0;
80499;PMS5003;69823;54.120;-4.710;2023-07-13T00:15:05;0;0;
80499;PMS5003;69823;54.120;-4.710;2023-07-13T00:17:28;1;1;
80499;PMS5003;69823;54.120;-4.710;2023-07-13T00:19:54;1;1;
80499;PMS5003;69823;54.120;-4.710;2023-07-13T00:22:20;1;1;
80499;PMS5003;69823;54.120;-4.710;2023-07-13T00:24:45;0;0;
80499;PMS5003;69823;54.120;-4.710;2023-07-13T00:27:11;0;0;
80499;PMS5003;69823;54.120;-4.710;2023-07-13T00:29:37;0;0;
80499;PMS5003;69823;54.120;-4.710;2023-07-13T00:32:03;0;0;
80499;PMS5003;69823;54.120;-4.710;2023-07-13T00:34:28;1;1;
80499;PMS5003;69823;54.120;-4.710;2023-07-13T00:36:54;1;0;
80499;PMS5003;69823;54.120;-4.710;2023-07-13T00:39:20;0;0;
80499;PMS5003;69823;54.120;-4.710;2023-07-13T00:41:45;1;1;
80499;PMS5003;69823;54.120;-4.710;2023-07-13T00:44:12;0;0;
80499;PMS5003;69823;54.120;-4.710;2023-07-13T00:46:37;0;0;
80499;PMS5003;69823;54.120;-4.710;2023-07-13T00:49:05;1;1;
80499;PMS5003;69823;54.120;-4.710;2023-07-13T00:51:31;1;1;
80499;PMS5003;69823;54.120;-4.710;2023-07-13T00:53:54;1;0;
80499;PMS5003;69823;54.120;-4.710;2023-07-13T00:56:20;0;0;
80499;PMS5003;69823;54.120;-4.710;2023-07-13T00:58:45;0;0;
80499;PMS5003;69823;54.120;-4.710;2023-07-13T01:01:11;0;0;
80499;PMS5003;69823;54.120;-4.710;2023-07-13T01:03:37;0;0;
80499;PMS5003;69823;54.120;-4.710;2023-07-13T01:06:03;1;1;
80499;PMS5003;69823;54.120;-4.710;2023-07-13T01:08:28;0;0;
80499;PMS5003;69823;54.120;-4.710;2023-07-13T01:10:55;1;1;
80499;PMS5003;69823;54.120;-4.710;2023-07-13T01:13:20;1;1;
80499;PMS5003;69823;54.120;-4.710;2023-07-13T01:15:46;0;0;
80499;PMS5003;69823;54.120;-4.710;2023-07-13T01:18:12;1;0;
80499;PMS5003;69823;54.120;-4.710;2023-07-13T01:20:37;1;1;
80499;PMS5003;69823;54.120;-4.710;2023-07-13T01:23:03;0;0;
80499;PMS5003;69823;54.120;-4.710;2023-07-13T01:25:28;0;0;
80499;PMS5003;69823;54.120;-4.710;2023-07-13T01:27:54;0;0;
80499;PMS5003;69823;54.120;-4.710;2023-07-13T01:30:19;1;0;
80499;PMS5003;69823;54.120;-4.710;2023-07-13T01:32:45;0;0;
80499;PMS5003;69823;54.120;-4.710;2023-07-13T01:35:11;0;0;
80499;PMS5003;69823;54.120;-4.710;2023-07-13T01:37:36;0;0;
80499;PMS5003;69823;54.120;-4.710;2023-07-13T01:40:02;0;0;
80499;PMS5003;69823;54.120;-4.710;2023-07-13T01:42:28;0;0;
80499;PMS5003;69823;54.120;-4.710;2023-07-13T01:44:54;1;0;
80499;PMS5003;69823;54.120;-4.710;2023-07-13T01:47:19;0;0;
80499;PMS5003;69823;54.120;-4.710;2023-07-13T01:49:45;1;1;
80499;PMS5003;69823;54.120;-4.710;2023-07-13T01:52:11;0;0;
80499;PMS5003;69823;54.120;-4.710;2023-07-13T01:54:36;0;0;
80499;PMS5003;69823;54.120;-4.710;2023-07-13T01:57:02;0;0;
80499;PMS5003;69823;54.120;-4.710;2023-07-13T01:59:28;0;0;
80499;PMS5003;69823;54.120;-4.710;2023-07-13T02:01:54;1;1;
80499;PMS5003;69823;54.120;-4.710;2023-07-13T02:04:19;0;0;
80499;PMS5003;69823;54.120;-4.710;2023-07-13T02:06:45;0;0;
80499;PMS5003;69823;54.120;-4.710;2023-07-13T02:09:11;0;0;
80499;PMS5003;69823;54.120;-4.710;2023-07-13T02:11:36;0;0;
80499;PMS5003;69823;54.120;-4.710;2023-07-13T02:14:02;0;0;
80499;PMS5003;69823;54.120;-4.710;2023-07-13T02:16:28;0;0;
80499;PMS5003;69823;54.120;-4.710;2023-07-13T02:18:54;0;0;
80499;PMS5003;69823;54.120;-4.710;2023-07-13T02:21:19;0;0;
80499;PMS5003;69823;54.120;-4.710;2023-07-13T02:23:45;0;0;
80499;PMS5003;69823;54.120;-4.710;2023-07-13T02:26:11;0;0;
80499;PMS5003;69823;54.120;-4.710;2023-07-13T02:28:37;0;0;
80499;PMS5003;69823;54.120;-4.710;2023-07-13T02:31:04;0;0;
80499;PMS5003;69823;54.120;-4.710;2023-07-13T02:33:28;0;0;
80499;PMS5003;69823;54.120;-4.710;2023-07-13T02:35:54;0;0;
80499;PMS5003;69823;54.120;-4.710;2023-07-13T02:38:19;1;1;
80499;PMS5003;69823;54.120;-4.710;2023-07-13T02:40:46;1;1;
80499;PMS5003;69823;54.120;-4.710;2023-07-13T02:43:12;0;0;
80499;PMS5003;69823;54.120;-4.710;2023-07-13T02:45:37;0;0;
80499;PMS5003;69823;54.120;-4.710;2023-07-13T02:48:02;1;1;
80499;PMS5003;69823;54.120;-4.710;2023-07-13T02:50:28;0;0;
80499;PMS5003;69823;54.120;-4.710;2023-07-13T02:52:54;1;1;
80499;PMS5003;69823;54.120;-4.710;2023-07-13T02:55:19;0;0;
80499;PMS5003;69823;54.120;-4.710;2023-07-13T02:57:45;1;0;
80499;PMS5003;69823;54.120;-4.710;2023-07-13T03:00:11;0;0;
80499;PMS5003;69823;54.120;-4.710;2023-07-13T03:02:36;0;0;
80499;PMS5003;69823;54.120;-4.710;2023-07-13T03:05:04;0;0;
80499;PMS5003;69823;54.120;-4.710;2023-07-13T03:07:28;1;1;
80499;PMS5003;69823;54.120;-4.710;2023-07-13T03:09:54;0;0;
80499;PMS5003;69823;54.120;-4.710;2023-07-13T03:12:19;0;0;
80499;PMS5003;69823;54.120;-4.710;2023-07-13T03:14:45;0;0;
80499;PMS5003;69823;54.120;-4.710;2023-07-13T03:17:11;1;0;
80499;PMS5003;69823;54.120;-4.710;2023-07-13T03:19:37;0;0;
80499;PMS5003;69823;54.120;-4.710;2023-07-13T03:22:02;0;0;
80499;PMS5003;69823;54.120;-4.710;2023-07-13T03:24:28;1;0;
80499;PMS5003;69823;54.120;-4.710;2023-07-13T03:26:54;0;0;
80499;PMS5003;69823;54.120;-4.710;2023-07-13T03:29:19;0;0;
80499;PMS5003;69823;54.120;-4.710;2023-07-13T03:31:45;0;0;
80499;PMS5003;69823;54.120;-4.710;2023-07-13T03:34:11;0;0;
80499;PMS5003;69823;54.120;-4.710;2023-07-13T03:36:37;0;0;
80499;PMS5003;69823;54.120;-4.710;2023-07-13T03:39:02;0;0;
80499;PMS5003;69823;54.120;-4.710;2023-07-13T03:41:28;0;0;
80499;PMS5003;69823;54.120;-4.710;2023-07-13T03:43:54;1;1;
80499;PMS5003;69823;54.120;-4.710;2023-07-13T03:46:19;0;0;
80499;PMS5003;69823;54.120;-4.710;2023-07-13T03:48:46;0;0;
80499;PMS5003;69823;54.120;-4.710;2023-07-13T03:51:11;0;0;
80499;PMS5003;69823;54.120;-4.710;2023-07-13T03:53:37;0;0;
80499;PMS5003;69823;54.120;-4.710;2023-07-13T03:56:02;0;0;
80499;PMS5003;69823;54.120;-4.710;2023-07-13T03:58:29;1;0;
80499;PMS5003;69823;54.120;-4.710;2023-07-13T04:00:54;0;0;
80499;PMS5003;69823;54.120;-4.710;2023-07-13T04:03:19;0;0;
80499;PMS5003;69823;54.120;-4.710;2023-07-13T04:05:45;1;1;
80499;PMS5003;69823;54.120;-4.710;2023-07-13T04:08:11;0;0;
80499;PMS5003;69823;54.120;-4.710;2023-07-13T04:10:37;0;0;
80499;PMS5003;69823;54.120;-4.710;2023-07-13T04:13:02;0;0;
80499;PMS5003;69823;54.120;-4.710;2023-07-13T04:15:29;0;0;
80499;PMS5003;69823;54.120;-4.710;2023-07-13T04:17:54;1;1;
80499;PMS5003;69823;54.120;-4.710;2023-07-13T04:20:19;0;0;
80499;PMS5003;69823;54.120;-4.710;2023-07-13T04:22:45;0;0;
80499;PMS5003;69823;54.120;-4.710;2023-07-13T04:25:11;0;0;
80499;PMS5003;69823;54.120;-4.710;2023-07-13T04:27:37;0;0;
80499;PMS5003;69823;54.120;-4.710;2023-07-13T04:30:02;1;0;
80499;PMS5003;69823;54.120;-4.710;2023-07-13T04:32:28;0;0;
80499;PMS5003;69823;54.120;-4.710;2023-07-13T04:34:54;0;0;
80499;PMS5003;69823;54.120;-4.710;2023-07-13T04:37:19;0;0;
80499;PMS5003;69823;54.120;-4.710;2023-07-13T04:39:45;0;0;
80499;PMS5003;69823;54.120;-4.710;2023-07-13T04:42:11;1;1;
80499;PMS5003;69823;54.120;-4.710;2023-07-13T04:44:37;0;0;
80499;PMS5003;69823;54.120;-4.710;2023-07-13T04:47:03;0;0;
80499;PMS5003;69823;54.120;-4.710;2023-07-13T04:49:28;1;1;
80499;PMS5003;69823;54.120;-4.710;2023-07-13T04:51:54;0;0;
80499;PMS5003;69823;54.120;-4.710;2023-07-13T04:54:20;0;0;
80499;PMS5003;69823;54.120;-4.710;2023-07-13T04:56:45;0;0;
80499;PMS5003;69823;54.120;-4.710;2023-07-13T04:59:11;0;0;
80499;PMS5003;69823;54.120;-4.710;2023-07-13T05:01:37;1;0;
80499;PMS5003;69823;54.120;-4.710;2023-07-13T05:04:02;1;0;
80499;PMS5003;69823;54.120;-4.710;2023-07-13T05:06:28;0;0;
80499;PMS5003;69823;54.120;-4.710;2023-07-13T05:08:54;1;1;
80499;PMS5003;69823;54.120;-4.710;2023-07-13T05:11:20;1;1;
80499;PMS5003;69823;54.120;-4.710;2023-07-13T05:13:45;0;0;
80499;PMS5003;69823;54.120;-4.710;2023-07-13T05:16:11;1;0;
80499;PMS5003;69823;54.120;-4.710;2023-07-13T05:18:37;0;0;
80499;PMS5003;69823;54.120;-4.710;2023-07-13T05:21:03;1;1;
80499;PMS5003;69823;54.120;-4.710;2023-07-13T05:23:28;0;0;
80499;PMS5003;69823;54.120;-4.710;2023-07-13T05:25:54;0;0;
80499;PMS5003;69823;54.120;-4.710;2023-07-13T05:28:20;0;0;
80499;PMS5003;69823;54.120;-4.710;2023-07-13T05:30:45;0;0;
80499;PMS5003;69823;54.120;-4.710;2023-07-13T05:33:11;0;0;
80499;PMS5003;69823;54.120;-4.710;2023-07-13T05:35:36;1;0;
80499;PMS5003;69823;54.120;-4.710;2023-07-13T05:38:02;0;0;
80499;PMS5003;69823;54.120;-4.710;2023-07-13T05:40:28;0;0;
80499;PMS5003;69823;54.120;-4.710;2023-07-13T05:42:54;0;0;
80499;PMS5003;69823;54.120;-4.710;2023-07-13T05:45:19;0;0;
80499;PMS5003;69823;54.120;-4.710;2023-07-13T05:47:45;0;0;
80499;PMS5003;69823;54.120;-4.710;2023-07-13T05:50:11;0;0;
80499;PMS5003;69823;54.120;-4.710;2023-07-13T05:52:36;0;0;
80499;PMS5003;69823;54.120;-4.710;2023-07-13T05:55:02;0;0;
80499;PMS5003;69823;54.120;-4.710;2023-07-13T05:57:28;1;1;
80499;PMS5003;69823;54.120;-4.710;2023-07-13T05:59:54;1;0;
80499;PMS5003;69823;54.120;-4.710;2023-07-13T06:02:19;0;0;
80499;PMS5003;69823;54.120;-4.710;2023-07-13T06:04:45;2;1;
80499;PMS5003;69823;54.120;-4.710;2023-07-13T06:07:11;1;0;
80499;PMS5003;69823;54.120;-4.710;2023-07-13T06:09:37;0;0;
80499;PMS5003;69823;54.120;-4.710;2023-07-13T06:12:03;0;0;
80499;PMS5003;69823;54.120;-4.710;2023-07-13T06:14:28;0;0;
80499;PMS5003;69823;54.120;-4.710;2023-07-13T06:16:54;0;0;
80499;PMS5003;69823;54.120;-4.710;2023-07-13T06:19:20;0;0;
80499;PMS5003;69823;54.120;-4.710;2023-07-13T06:21:45;0;0;
80499;PMS5003;69823;54.120;-4.710;2023-07-13T06:24:11;1;0;
80499;PMS5003;69823;54.120;-4.710;2023-07-13T06:26:37;1;1;
80499;PMS5003;69823;54.120;-4.710;2023-07-13T06:29:02;0;0;
80499;PMS5003;69823;54.120;-4.710;2023-07-13T06:31:28;1;1;
80499;PMS5003;69823;54.120;-4.710;2023-07-13T06:33:54;0;0;
80499;PMS5003;69823;54.120;-4.710;2023-07-13T06:36:20;0;0;
80499;PMS5003;69823;54.120;-4.710;2023-07-13T06:38:45;0;0;
80499;PMS5003;69823;54.120;-4.710;2023-07-13T06:41:11;0;0;
80499;PMS5003;69823;54.120;-4.710;2023-07-13T06:43:37;0;0;
80499;PMS5003;69823;54.120;-4.710;2023-07-13T06:46:03;0;0;
80499;PMS5003;69823;54.120;-4.710;2023-07-13T06:48:28;1;0;
80499;PMS5003;69823;54.120;-4.710;2023-07-13T06:50:54;0;0;
80499;PMS5003;69823;54.120;-4.710;2023-07-13T06:53:20;0;0;
80499;PMS5003;69823;54.120;-4.710;2023-07-13T06:55:46;0;0;
80499;PMS5003;69823;54.120;-4.710;2023-07-13T06:58:11;0;0;
80499;PMS5003;69823;54.120;-4.710;2023-07-13T07:00:37;2;1;
80499;PMS5003;69823;54.120;-4.710;2023-07-13T07:03:03;0;0;
80499;PMS5003;69823;54.120;-4.710;2023-07-13T07:05:28;0;0;
80499;PMS5003;69823;54.120;-4.710;2023-07-13T07:07:54;2;1;
80499;PMS5003;69823;54.120;-4.710;2023-07-13T07:10:20;1;1;
80499;PMS5003;69823;54.120;-4.710;2023-07-13T07:12:46;1;1;
80499;PMS5003;69823;54.120;-4.710;2023-07-13T07:15:12;1;1;
80499;PMS5003;69823;54.120;-4.710;2023-07-13T07:17:37;0;0;
80499;PMS5003;69823;54.120;-4.710;2023-07-13T07:20:03;4;2;
80499;PMS5003;69823;54.120;-4.710;2023-07-13T07:22:29;0;0;
80499;PMS5003;69823;54.120;-4.710;2023-07-13T07:24:54;2;0;
80499;PMS5003;69823;54.120;-4.710;2023-07-13T07:27:20;0;0;
80499;PMS5003;69823;54.120;-4.710;2023-07-13T07:29:46;0;0;
80499;PMS5003;69823;54.120;-4.710;2023-07-13T07:32:12;1;1;
80499;PMS5003;69823;54.120;-4.710;2023-07-13T07:34:37;0;0;
80499;PMS5003;69823;54.120;-4.710;2023-07-13T07:37:03;1;0;
80499;PMS5003;69823;54.120;-4.710;2023-07-13T07:39:29;0;0;
80499;PMS5003;69823;54.120;-4.710;2023-07-13T07:41:54;1;1;
80499;PMS5003;69823;54.120;-4.710;2023-07-13T07:44:20;0;0;
80499;PMS5003;69823;54.120;-4.710;2023-07-13T07:46:46;2;1;
80499;PMS5003;69823;54.120;-4.710;2023-07-13T07:49:12;1;1;
80499;PMS5003;69823;54.120;-4.710;2023-07-13T07:51:37;1;1;
80499;PMS5003;69823;54.120;-4.710;2023-07-13T07:54:03;0;0;
80499;PMS5003;69823;54.120;-4.710;2023-07-13T07:56:29;1;1;
80499;PMS5003;69823;54.120;-4.710;2023-07-13T07:58:54;0;0;
80499;PMS5003;69823;54.120;-4.710;2023-07-13T08:01:20;1;1;
80499;PMS5003;69823;54.120;-4.710;2023-07-13T08:03:46;1;0;
80499;PMS5003;69823;54.120;-4.710;2023-07-13T08:06:12;0;0;
80499;PMS5003;69823;54.120;-4.710;2023-07-13T08:08:37;0;0;
80499;PMS5003;69823;54.120;-4.710;2023-07-13T08:11:03;1;0;
80499;PMS5003;69823;54.120;-4.710;2023-07-13T08:13:29;0;0;
80499;PMS5003;69823;54.120;-4.710;2023-07-13T08:15:54;2;1;
80499;PMS5003;69823;54.120;-4.710;2023-07-13T08:18:20;0;0;
80499;PMS5003;69823;54.120;-4.710;2023-07-13T08:20:46;2;1;
80499;PMS5003;69823;54.120;-4.710;2023-07-13T08:23:12;1;1;
80499;PMS5003;69823;54.120;-4.710;2023-07-13T08:25:37;1;0;
80499;PMS5003;69823;54.120;-4.710;2023-07-13T08:28:03;1;1;
80499;PMS5003;69823;54.120;-4.710;2023-07-13T08:30:29;0;0;
80499;PMS5003;69823;54.120;-4.710;2023-07-13T08:32:55;0;0;
80499;PMS5003;69823;54.120;-4.710;2023-07-13T08:35:20;1;0;
80499;PMS5003;69823;54.120;-4.710;2023-07-13T08:37:46;0;0;
80499;PMS5003;69823;54.120;-4.710;2023-07-13T08:40:12;1;1;
80499;PMS5003;69823;54.120;-4.710;2023-07-13T08:42:39;1;0;
80499;PMS5003;69823;54.120;-4.710;2023-07-13T08:45:07;0;0;
80499;PMS5003;69823;54.120;-4.710;2023-07-13T08:47:29;1;1;
80499;PMS5003;69823;54.120;-4.710;2023-07-13T08:49:55;1;1;
80499;PMS5003;69823;54.120;-4.710;2023-07-13T08:52:24;2;1;
80499;PMS5003;69823;54.120;-4.710;2023-07-13T08:54:47;1;1;
80499;PMS5003;69823;54.120;-4.710;2023-07-13T08:57:13;3;2;
80499;PMS5003;69823;54.120;-4.710;2023-07-13T08:59:38;1;1;
80499;PMS5003;69823;54.120;-4.710;2023-07-13T09:02:09;1;1;
80499;PMS5003;69823;54.120;-4.710;2023-07-13T09:04:30;1;0;
80499;PMS5003;69823;54.120;-4.710;2023-07-13T09:06:58;2;2;
80499;PMS5003;69823;54.120;-4.710;2023-07-13T09:09:23;4;3;
80499;PMS5003;69823;54.120;-4.710;2023-07-13T09:11:49;1;1;
80499;PMS5003;69823;54.120;-4.710;2023-07-13T09:14:19;2;2;
80499;PMS5003;69823;54.120;-4.710;2023-07-13T09:16:38;1;1;
80499;PMS5003;69823;54.120;-4.710;2023-07-13T09:19:04;2;2;
80499;PMS5003;69823;54.120;-4.710;2023-07-13T09:21:30;1;1;
80499;PMS5003;69823;54.120;-4.710;2023-07-13T09:23:56;3;2;
80499;PMS5003;69823;54.120;-4.710;2023-07-13T09:26:21;2;2;
80499;PMS5003;69823;54.120;-4.710;2023-07-13T09:28:48;0;0;
80499;PMS5003;69823;54.120;-4.710;2023-07-13T09:31:13;1;1;
80499;PMS5003;69823;54.120;-4.710;2023-07-13T09:33:38;2;2;
80499;PMS5003;69823;54.120;-4.710;2023-07-13T09:36:08;2;2;
80499;PMS5003;69823;54.120;-4.710;2023-07-13T09:38:30;1;1;
80499;PMS5003;69823;54.120;-4.710;2023-07-13T09:40:58;1;1;
80499;PMS5003;69823;54.120;-4.710;2023-07-13T09:43:21;3;2;
80499;PMS5003;69823;54.120;-4.710;2023-07-13T09:45:47;1;1;
80499;PMS5003;69823;54.120;-4.710;2023-07-13T09:48:13;1;1;
80499;PMS5003;69823;54.120;-4.710;2023-07-13T09:50:38;2;2;
80499;PMS5003;69823;54.120;-4.710;2023-07-13T09:53:04;1;1;
80499;PMS5003;69823;54.120;-4.710;2023-07-13T09:55:31;1;1;
80499;PMS5003;69823;54.120;-4.710;2023-07-13T09:57:56;1;1;
80499;PMS5003;69823;54.120;-4.710;2023-07-13T10:00:22;1;1;
80499;PMS5003;69823;54.120;-4.710;2023-07-13T10:02:49;0;0;
80499;PMS5003;69823;54.120;-4.710;2023-07-13T10:05:13;2;1;
80499;PMS5003;69823;54.120;-4.710;2023-07-13T10:07:39;2;1;
80499;PMS5003;69823;54.120;-4.710;2023-07-13T10:10:12;2;2;
80499;PMS5003;69823;54.120;-4.710;2023-07-13T10:12:30;2;2;
80499;PMS5003;69823;54.120;-4.710;2023-07-13T10:14:57;1;1;
80499;PMS5003;69823;54.120;-4.710;2023-07-13T10:17:29;3;2;
80499;PMS5003;69823;54.120;-4.710;2023-07-13T10:19:47;2;1;
80499;PMS5003;69823;54.120;-4.710;2023-07-13T10:22:14;1;1;
80499;PMS5003;69823;54.120;-4.710;2023-07-13T10:24:39;0;0;
80499;PMS5003;69823;54.120;-4.710;2023-07-13T10:27:09;1;1;
80499;PMS5003;69823;54.120;-4.710;2023-07-13T10:29:32;2;2;
80499;PMS5003;69823;54.120;-4.710;2023-07-13T10:31:56;1;1;
80499;PMS5003;69823;54.120;-4.710;2023-07-13T10:34:22;2;1;
80499;PMS5003;69823;54.120;-4.710;2023-07-13T10:36:47;1;1;
80499;PMS5003;69823;54.120;-4.710;2023-07-13T10:39:14;3;1;
80499;PMS5003;69823;54.120;-4.710;2023-07-13T10:41:39;0;0;
80499;PMS5003;69823;54.120;-4.710;2023-07-13T10:44:05;1;1;
80499;PMS5003;69823;54.120;-4.710;2023-07-13T10:46:30;2;1;
80499;PMS5003;69823;54.120;-4.710;2023-07-13T10:48:57;4;3;
80499;PMS5003;69823;54.120;-4.710;2023-07-13T10:51:22;1;0;
80499;PMS5003;69823;54.120;-4.710;2023-07-13T10:53:48;2;1;
80499;PMS5003;69823;54.120;-4.710;2023-07-13T10:58:39;2;2;
80499;PMS5003;69823;54.120;-4.710;2023-07-13T11:01:07;3;2;
80499;PMS5003;69823;54.120;-4.710;2023-07-13T11:03:31;18;18;
80499;PMS5003;69823;54.120;-4.710;2023-07-13T11:08:32;43;39;
80499;PMS5003;69823;54.120;-4.710;2023-07-13T11:10:47;66;61;
80499;PMS5003;69823;54.120;-4.710;2023-07-13T11:15:43;77;70;
80499;PMS5003;69823;54.120;-4.710;2023-07-13T11:18:03;72;64;
80499;PMS5003;69823;54.120;-4.710;2023-07-13T11:20:33;55;50;
80499;PMS5003;69823;54.120;-4.710;2023-07-13T11:23:06;55;54;
80499;PMS5003;69823;54.120;-4.710;2023-07-13T11:25:21;69;65;
80499;PMS5003;69823;54.120;-4.710;2023-07-13T11:27:45;65;60;
80499;PMS5003;69823;54.120;-4.710;2023-07-13T11:30:21;71;66;
80499;PMS5003;69823;54.120;-4.710;2023-07-13T11:32:35;73;68;
80499;PMS5003;69823;54.120;-4.710;2023-07-13T11:35:01;143;131;
80499;PMS5003;69823;54.120;-4.710;2023-07-13T11:37:26;119;105;
80499;PMS5003;69823;54.120;-4.710;2023-07-13T11:39:51;121;105;
80499;PMS5003;69823;54.120;-4.710;2023-07-13T11:42:17;149;131;
80499;PMS5003;69823;54.120;-4.710;2023-07-13T11:44:43;156;136;
80499;PMS5003;69823;54.120;-4.710;2023-07-13T11:47:09;154;141;
80499;PMS5003;69823;54.120;-4.710;2023-07-13T11:49:38;149;132;
80499;PMS5003;69823;54.120;-4.710;2023-07-13T11:51:58;172;147;
80499;PMS5003;69823;54.120;-4.710;2023-07-13T11:54:25;145;131;
80499;PMS5003;69823;54.120;-4.710;2023-07-13T11:56:49;153;127;
80499;PMS5003;69823;54.120;-4.710;2023-07-13T11:59:14;131;124;
80499;PMS5003;69823;54.120;-4.710;2023-07-13T12:01:42;138;125;
80499;PMS5003;69823;54.120;-4.710;2023-07-13T12:04:05;140;131;
80499;PMS5003;69823;54.120;-4.710;2023-07-13T12:06:31;147;135;
80499;PMS5003;69823;54.120;-4.710;2023-07-13T12:08:56;160;140;
80499;PMS5003;69823;54.120;-4.710;2023-07-13T12:11:21;154;133;
80499;PMS5003;69823;54.120;-4.710;2023-07-13T12:13:46;153;138;
80499;PMS5003;69823;54.120;-4.710;2023-07-13T12:16:14;153;143;
80499;PMS5003;69823;54.120;-4.710;2023-07-13T12:18:37;140;129;
80499;PMS5003;69823;54.120;-4.710;2023-07-13T12:21:02;142;129;
80499;PMS5003;69823;54.120;-4.710;2023-07-13T12:23:29;149;136;
80499;PMS5003;69823;54.120;-4.710;2023-07-13T12:25:53;132;119;
80499;PMS5003;69823;54.120;-4.710;2023-07-13T12:28:19;150;135;
80499;PMS5003;69823;54.120;-4.710;2023-07-13T12:30:47;144;137;
80499;PMS5003;69823;54.120;-4.710;2023-07-13T12:33:11;147;134;
80499;PMS5003;69823;54.120;-4.710;2023-07-13T12:35:39;148;135;
80499;PMS5003;69823;54.120;-4.710;2023-07-13T12:38:00;150;139;
80499;PMS5003;69823;54.120;-4.710;2023-07-13T12:40:26;153;139;
80499;PMS5003;69823;54.120;-4.710;2023-07-13T12:42:51;138;130;
80499;PMS5003;69823;54.120;-4.710;2023-07-13T12:45:17;154;135;
80499;PMS5003;69823;54.120;-4.710;2023-07-13T12:47:42;144;136;
80499;PMS5003;69823;54.120;-4.710;2023-07-13T12:50:14;136;126;
80499;PMS5003;69823;54.120;-4.710;2023-07-13T12:52:33;128;125;
80499;PMS5003;69823;54.120;-4.710;2023-07-13T12:55:03;145;127;
80499;PMS5003;69823;54.120;-4.710;2023-07-13T12:57:24;132;120;
80499;PMS5003;69823;54.120;-4.710;2023-07-13T12:59:51;121;113;
80499;PMS5003;69823;54.120;-4.710;2023-07-13T13:02:19;131;115;
80499;PMS5003;69823;54.120;-4.710;2023-07-13T13:04:39;128;120;
80499;PMS5003;69823;54.120;-4.710;2023-07-13T13:07:05;130;114;
80499;PMS5003;69823;54.120;-4.710;2023-07-13T13:09:30;139;120;
80499;PMS5003;69823;54.120;-4.710;2023-07-13T13:11:55;122;110;
80499;PMS5003;69823;54.120;-4.710;2023-07-13T13:14:21;124;115;
80499;PMS5003;69823;54.120;-4.710;2023-07-13T13:16:47;125;115;
80499;PMS5003;69823;54.120;-4.710;2023-07-13T13:19:13;117;112;
80499;PMS5003;69823;54.120;-4.710;2023-07-13T13:21:37;115;106;
80499;PMS5003;69823;54.120;-4.710;2023-07-13T13:24:04;116;105;
80499;PMS5003;69823;54.120;-4.710;2023-07-13T13:26:28;121;107;
80499;PMS5003;69823;54.120;-4.710;2023-07-13T13:28:54;99;96;
80499;PMS5003;69823;54.120;-4.710;2023-07-13T13:31:19;113;101;
80499;PMS5003;69823;54.120;-4.710;2023-07-13T13:33:45;108;102;
80499;PMS5003;69823;54.120;-4.710;2023-07-13T13:36:14;114;103;
80499;PMS5003;69823;54.120;-4.710;2023-07-13T13:38:36;93;90;
80499;PMS5003;69823;54.120;-4.710;2023-07-13T13:41:01;98;91;
80499;PMS5003;69823;54.120;-4.710;2023-07-13T13:43:27;107;99;
80499;PMS5003;69823;54.120;-4.710;2023-07-13T13:45:53;101;88;
80499;PMS5003;69823;54.120;-4.710;2023-07-13T13:48:18;98;90;
80499;PMS5003;69823;54.120;-4.710;2023-07-13T13:50:43;98;93;
80499;PMS5003;69823;54.120;-4.710;2023-07-13T13:53:10;92;83;
80499;PMS5003;69823;54.120;-4.710;2023-07-13T13:55:34;101;92;
80499;PMS5003;69823;54.120;-4.710;2023-07-13T13:57:59;103;90;
80499;PMS5003;69823;54.120;-4.710;2023-07-13T14:00:24;88;81;
80499;PMS5003;69823;54.120;-4.710;2023-07-13T14:02:49;96;90;
80499;PMS5003;69823;54.120;-4.710;2023-07-13T14:05:15;87;78;
80499;PMS5003;69823;54.120;-4.710;2023-07-13T14:07:40;82;78;
80499;PMS5003;69823;54.120;-4.710;2023-07-13T14:10:10;82;76;
80499;PMS5003;69823;54.120;-4.710;2023-07-13T14:12:31;94;88;
80499;PMS5003;69823;54.120;-4.710;2023-07-13T14:14:57;96;92;
80499;PMS5003;69823;54.120;-4.710;2023-07-13T14:17:24;93;77;
80499;PMS5003;69823;54.120;-4.710;2023-07-13T14:19:48;86;80;
80499;PMS5003;69823;54.120;-4.710;2023-07-13T14:22:14;95;86;
80499;PMS5003;69823;54.120;-4.710;2023-07-13T14:24:39;87;84;
80499;PMS5003;69823;54.120;-4.710;2023-07-13T14:27:05;75;73;
80499;PMS5003;69823;54.120;-4.710;2023-07-13T14:29:30;76;74;
80499;PMS5003;69823;54.120;-4.710;2023-07-13T14:31:56;89;81;
80499;PMS5003;69823;54.120;-4.710;2023-07-13T14:34:21;71;66;
80499;PMS5003;69823;54.120;-4.710;2023-07-13T14:36:47;82;78;
80499;PMS5003;69823;54.120;-4.710;2023-07-13T14:39:13;81;74;
80499;PMS5003;69823;54.120;-4.710;2023-07-13T14:41:37;70;68;
80499;PMS5003;69823;54.120;-4.710;2023-07-13T14:44:07;76;71;
80499;PMS5003;69823;54.120;-4.710;2023-07-13T14:46:28;84;77;
80499;PMS5003;69823;54.120;-4.710;2023-07-13T14:48:53;77;73;
80499;PMS5003;69823;54.120;-4.710;2023-07-13T14:51:18;78;72;
80499;PMS5003;69823;54.120;-4.710;2023-07-13T14:53:44;77;72;
80499;PMS5003;69823;54.120;-4.710;2023-07-13T14:56:10;68;66;
80499;PMS5003;69823;54.120;-4.710;2023-07-13T14:58:34;75;71;
80499;PMS5003;69823;54.120;-4.710;2023-07-13T15:01:00;78;74;
80499;PMS5003;69823;54.120;-4.710;2023-07-13T15:03:25;62;60;
80499;PMS5003;69823;54.120;-4.710;2023-07-13T15:05:51;67;65;
80499;PMS5003;69823;54.120;-4.710;2023-07-13T15:08:16;65;62;
80499;PMS5003;69823;54.120;-4.710;2023-07-13T15:10:42;66;64;
80499;PMS5003;69823;54.120;-4.710;2023-07-13T15:13:14;66;60;
80499;PMS5003;69823;54.120;-4.710;2023-07-13T15:15:33;66;64;
80499;PMS5003;69823;54.120;-4.710;2023-07-13T15:17:58;67;65;
80499;PMS5003;69823;54.120;-4.710;2023-07-13T15:20:25;69;63;
80499;PMS5003;69823;54.120;-4.710;2023-07-13T15:22:49;62;59;
80499;PMS5003;69823;54.120;-4.710;2023-07-13T15:25:16;59;58;
80499;PMS5003;69823;54.120;-4.710;2023-07-13T15:27:40;70;68;
80499;PMS5003;69823;54.120;-4.710;2023-07-13T15:30:05;62;58;
80499;PMS5003;69823;54.120;-4.710;2023-07-13T15:32:30;66;60;
80499;PMS5003;69823;54.120;-4.710;2023-07-13T15:34:56;59;58;
80499;PMS5003;69823;54.120;-4.710;2023-07-13T15:37:22;63;61;
80499;PMS5003;69823;54.120;-4.710;2023-07-13T15:39:47;61;56;
80499;PMS5003;69823;54.120;-4.710;2023-07-13T15:42:13;65;60;
80499;PMS5003;69823;54.120;-4.710;2023-07-13T15:44:38;52;52;
80499;PMS5003;69823;54.120;-4.710;2023-07-13T15:47:03;56;55;
80499;PMS5003;69823;54.120;-4.710;2023-07-13T15:49:29;56;53;
80499;PMS5003;69823;54.120;-4.710;2023-07-13T15:51:54;57;55;
80499;PMS5003;69823;54.120;-4.710;2023-07-13T15:54:20;53;51;
80499;PMS5003;69823;54.120;-4.710;2023-07-13T15:56:47;53;51;
80499;PMS5003;69823;54.120;-4.710;2023-07-13T15:59:11;55;54;
80499;PMS5003;69823;54.120;-4.710;2023-07-13T16:01:36;56;52;
80499;PMS5003;69823;54.120;-4.710;2023-07-13T16:04:01;56;54;
80499;PMS5003;69823;54.120;-4.710;2023-07-13T16:06:28;53;50;
80499;PMS5003;69823;54.120;-4.710;2023-07-13T16:08:52;47;44;
80499;PMS5003;69823;54.120;-4.710;2023-07-13T16:11:19;44;44;
80499;PMS5003;69823;54.120;-4.710;2023-07-13T16:13:44;59;50;